Time;durP1;ratioP1;P1;durP2;ratioP2;P2;SDS_P1;SDS_P2;PMS_P1;PMS_P2;Temp;Humidity;BMP_temperature;BMP_pressure;BME280_temperature;BME280_humidity;BME280_pressure;Samples;Min_cycle;Max_cycle;Signal;HPM_P1;HPM_P2
2024/04/25 00:00:51;;;;;;;5.03;0.98;;;;;;;-146.27;73.83;45938.56;5462584;26;20018;-68
2024/04/25 00:03:17;;;;;;;7.25;1.33;;;;;;;-146.27;73.38;45934.59;5468737;26;19995;-68
2024/04/25 00:05:42;;;;;;;5.22;0.68;;;;;;;-146.27;73.18;45972.41;5462833;26;19994;-69
2024/04/25 00:08:07;;;;;;;4.43;0.80;;;;;;;-146.27;73.21;45966.44;5449946;26;20747;-68
2024/04/25 00:10:34;;;;;;;2.45;0.77;;;;;;;-146.27;73.00;45958.47;5449042;26;20006;-67
2024/04/25 00:13:00;;;;;;;7.13;0.95;;;;;;;-146.27;72.46;45990.31;5469468;26;20005;-67
2024/04/25 00:15:25;;;;;;;10.75;1.20;;;;;;;-146.27;71.03;45970.41;5461212;26;19994;-66
2024/04/25 00:17:51;;;;;;;8.32;1.45;;;;;;;-146.27;72.41;45970.41;5470107;26;19994;-67
2024/04/25 00:20:16;;;;;;;7.70;0.90;;;;;;;-146.27;72.75;45960.47;5470997;26;20035;-70
2024/04/25 00:22:41;;;;;;;3.80;1.17;;;;;;;-146.27;72.60;45946.53;5453079;26;20011;-67
2024/04/25 00:25:07;;;;;;;4.40;0.90;;;;;;;-146.27;72.68;45940.56;5454195;26;19998;-67
2024/04/25 00:27:32;;;;;;;3.70;0.95;;;;;;;-146.27;73.67;45922.63;5449993;26;20412;-67
2024/04/25 00:29:58;;;;;;;3.67;0.98;;;;;;;-146.27;74.47;45866.91;5477257;26;19994;-66
2024/04/25 00:32:23;;;;;;;3.28;0.80;;;;;;;-146.27;75.04;45852.97;5450396;26;19999;-69
2024/04/25 00:34:48;;;;;;;7.53;1.08;;;;;;;-146.27;74.76;45854.97;5474179;26;20303;-67
2024/04/25 00:37:14;;;;;;;5.82;1.90;;;;;;;-146.27;75.15;45819.13;5477590;26;20486;-67
2024/04/25 00:39:39;;;;;;;10.57;1.20;;;;;;;-146.27;74.74;45823.13;5483132;26;19998;-67
2024/04/25 00:42:05;;;;;;;5.60;1.40;;;;;;;-146.27;75.05;45817.16;5478582;26;20013;-68
2024/04/25 00:44:30;;;;;;;2.13;1.20;;;;;;;-146.27;75.68;45803.22;5465482;26;19991;-67
2024/04/25 00:46:56;;;;;;;5.43;1.08;;;;;;;-146.27;75.79;45743.50;5463972;26;20481;-66
2024/04/25 00:49:22;;;;;;;7.18;1.05;;;;;;;-146.27;75.89;45775.34;5474770;26;20771;-67
2024/04/25 00:51:50;;;;;;;5.32;1.15;;;;;;;-146.27;75.64;45759.44;5483371;26;20303;-68
2024/04/25 00:54:16;;;;;;;8.70;1.58;;;;;;;-146.27;75.18;45775.34;5484843;26;20357;-67
2024/04/25 00:56:43;;;;;;;9.52;1.25;;;;;;;-146.27;74.60;45771.38;5472258;26;19990;-68
2024/04/25 00:59:11;;;;;;;4.63;1.13;;;;;;;-146.27;75.78;45737.53;5484571;26;20038;-69
2024/04/25 01:01:41;;;;;;;4.45;0.85;;;;;;;-146.27;76.03;45723.59;5478082;26;19990;-67
2024/04/25 01:04:07;;;;;;;4.95;1.00;;;;;;;-146.27;76.20;45691.75;5455043;26;19999;-67
2024/04/25 01:06:34;;;;;;;7.15;1.10;;;;;;;-146.27;76.14;45717.63;5466005;26;20455;-66
2024/04/25 01:09:00;;;;;;;6.13;0.93;;;;;;;-146.27;76.82;45667.88;5447523;26;20034;-67
2024/04/25 01:11:27;;;;;;;5.78;1.23;;;;;;;-146.27;77.66;45636.03;5450709;26;20324;-67
2024/04/25 01:13:54;;;;;;;12.40;1.50;;;;;;;-146.27;78.21;45548.44;5478677;26;20331;-67
2024/04/25 01:16:19;;;;;;;8.93;1.27;;;;;;;-146.27;78.22;45488.75;5472560;26;19999;-68
2024/04/25 01:18:45;;;;;;;7.18;1.13;;;;;;;-146.27;78.41;45450.91;5471557;26;20006;-67
2024/04/25 01:21:10;;;;;;;5.95;1.55;;;;;;;-146.27;78.23;45448.94;5448215;26;20002;-68
2024/04/25 01:23:39;;;;;;;8.82;1.10;;;;;;;-146.27;78.23;45413.09;5448386;26;20457;-69
2024/04/25 01:26:06;;;;;;;9.02;2.15;;;;;;;-146.27;78.64;45353.41;5467309;26;20002;-71
2024/04/25 01:28:33;;;;;;;8.57;1.30;;;;;;;-146.27;78.92;45293.69;5483827;26;20002;-70
2024/04/25 01:30:59;;;;;;;5.43;1.08;;;;;;;-146.27;79.06;45249.91;5473490;26;19998;-70
2024/04/25 01:33:26;;;;;;;3.03;0.90;;;;;;;-146.27;79.12;45182.25;5484775;26;20005;-71
2024/04/25 01:35:52;;;;;;;3.22;1.00;;;;;;;-146.27;78.84;45174.28;5466771;26;20014;-71
2024/04/25 01:38:17;;;;;;;4.20;1.00;;;;;;;-146.27;77.68;45200.16;5448524;26;19991;-70
2024/04/25 01:40:43;;;;;;;4.85;1.10;;;;;;;-146.27;76.52;45257.88;5450018;26;19991;-70
2024/04/25 01:43:09;;;;;;;5.57;1.23;;;;;;;-146.27;75.71;45325.53;5484407;26;20035;-71
2024/04/25 01:45:34;;;;;;;11.68;1.88;;;;;;;-146.27;75.99;45361.38;5465143;26;20451;-71
2024/04/25 01:48:00;;;;;;;11.00;1.77;;;;;;;-146.27;75.04;45377.28;5466411;26;20067;-70
2024/04/25 01:50:25;;;;;;;2.85;1.10;;;;;;;-146.27;74.29;45381.25;5484959;26;20030;-70
2024/04/25 01:52:50;;;;;;;7.13;1.10;;;;;;;-146.27;73.23;45429.03;5448785;26;20081;-69
2024/04/25 01:55:16;;;;;;;3.45;1.35;;;;;;;-146.27;72.44;45468.84;5453843;26;20012;-70
2024/04/25 01:57:41;;;;;;;6.53;1.00;;;;;;;-146.27;71.77;45544.47;5486854;26;20005;-68
2024/04/25 02:00:07;;;;;;;8.57;1.10;;;;;;;-146.27;70.59;45548.44;5487699;26;20057;-70
2024/04/25 02:02:32;;;;;;;5.22;1.05;;;;;;;-146.27;70.36;45576.31;5487141;26;19994;-70
2024/04/25 02:04:58;;;;;;;11.55;1.25;;;;;;;-146.27;71.44;45538.50;5457131;26;20401;-69
2024/04/25 02:07:23;;;;;;;4.53;0.80;;;;;;;-146.27;70.59;45592.22;5451580;26;20009;-71
2024/04/25 02:09:49;;;;;;;9.45;0.90;;;;;;;-146.27;70.95;45608.16;5451213;26;20025;-71
2024/04/25 02:12:14;;;;;;;6.32;0.95;;;;;;;-146.27;71.59;45604.19;5454235;26;20010;-71
2024/04/25 02:14:39;;;;;;;6.50;1.17;;;;;;;-146.27;71.32;45632.03;5454438;26;20031;-70
2024/04/25 02:17:05;;;;;;;5.05;1.05;;;;;;;-146.27;71.51;45612.13;5472192;26;19994;-67
2024/04/25 02:19:30;;;;;;;7.70;1.15;;;;;;;-146.27;70.96;45671.84;5468491;26;20001;-66
2024/04/25 02:27:23;;;;;;;9.00;1.45;;;;;;;-146.27;71.20;45713.66;5473173;26;20043;-67
2024/04/25 02:29:49;;;;;;;4.45;1.02;;;;;;;-146.27;71.61;45711.66;5485508;26;19998;-68
2024/04/25 02:32:14;;;;;;;6.25;1.13;;;;;;;-146.27;72.41;45699.72;5467210;26;20397;-66
2024/04/25 02:34:39;;;;;;;8.43;1.60;;;;;;;-146.27;73.78;45695.72;5469897;26;20006;-70
2024/04/25 02:37:05;;;;;;;6.55;1.20;;;;;;;-146.27;74.18;45659.91;5469838;26;20018;-70
2024/04/25 02:39:31;;;;;;;2.45;0.98;;;;;;;-146.27;74.18;45651.94;5454659;26;20003;-70
2024/04/25 02:41:56;;;;;;;6.82;1.50;;;;;;;-146.27;74.33;45687.78;5450454;26;19995;-69
2024/04/25 02:44:22;;;;;;;4.43;0.73;;;;;;;-146.27;74.86;45645.97;5450212;26;20438;-71
2024/04/25 02:46:47;;;;;;;3.30;0.63;;;;;;;-146.27;75.02;45671.84;5450455;26;20423;-70
2024/04/25 02:49:13;;;;;;;8.60;1.45;;;;;;;-146.27;75.51;45647.97;5461700;26;20010;-70
2024/04/25 02:51:40;;;;;;;3.45;0.70;;;;;;;-146.27;75.02;45634.03;5459912;26;20022;-70
2024/04/25 02:54:05;;;;;;;3.75;1.05;;;;;;;-146.27;74.70;45663.88;5450292;26;20413;-73
2024/04/25 02:56:30;;;;;;;7.65;1.27;;;;;;;-146.27;75.13;45675.81;5450184;26;19991;-70
2024/04/25 02:58:56;;;;;;;1.75;0.57;;;;;;;-146.27;76.19;45608.16;5448534;26;20864;-69
2024/04/25 03:01:21;;;;;;;6.78;1.00;;;;;;;-146.27;76.11;45620.09;5450716;26;20006;-69
2024/04/25 03:03:46;;;;;;;6.25;1.30;;;;;;;-146.27;76.85;45582.28;5451119;26;20006;-71
2024/04/25 03:06:12;;;;;;;6.30;1.38;;;;;;;-146.27;76.96;45578.31;5450920;26;20357;-70
2024/04/25 03:08:37;;;;;;;3.67;1.20;;;;;;;-146.27;77.44;45536.50;5450515;26;20008;-71
2024/04/25 03:11:03;;;;;;;7.97;1.00;;;;;;;-146.27;77.12;45528.53;5468395;26;20348;-69
2024/04/25 03:13:29;;;;;;;5.47;1.30;;;;;;;-146.27;77.40;45520.59;5485714;26;20438;-70
2024/04/25 03:15:54;;;;;;;6.13;1.25;;;;;;;-146.27;77.50;45488.75;5459928;26;20080;-72
2024/04/25 03:18:19;;;;;;;7.95;0.90;;;;;;;-146.27;77.33;45508.63;5486005;26;20006;-70
2024/04/25 03:20:45;;;;;;;5.35;1.40;;;;;;;-146.27;77.82;45508.63;5468161;26;19999;-71
2024/04/25 03:23:10;;;;;;;6.38;0.98;;;;;;;-146.27;78.21;45421.06;5457757;26;20009;-68
2024/04/25 03:25:35;;;;;;;4.40;1.08;;;;;;;-146.27;78.16;45421.06;5452927;26;20006;-71
2024/04/25 03:28:01;;;;;;;2.75;0.70;;;;;;;-146.27;78.10;45417.09;5453708;26;20436;-69
2024/04/25 03:30:26;;;;;;;3.08;0.95;;;;;;;-146.27;77.19;45417.09;5467448;26;20332;-70
2024/04/25 03:32:51;;;;;;;1.92;0.90;;;;;;;-146.27;77.49;45409.13;5449246;26;20405;-70
2024/04/25 03:35:17;;;;;;;5.57;1.73;;;;;;;-146.27;77.48;45405.16;5457093;26;20002;-70
2024/04/25 03:37:42;;;;;;;6.85;1.33;;;;;;;-146.27;77.92;45391.22;5477435;26;20339;-71
2024/04/25 03:40:08;;;;;;;3.95;0.82;;;;;;;-146.27;78.87;45281.75;5454383;26;20013;-70
2024/04/25 03:42:33;;;;;;;5.53;1.13;;;;;;;-146.27;79.79;45202.16;5455423;26;20011;-71
2024/04/25 03:44:59;;;;;;;5.63;0.80;;;;;;;-146.27;79.72;45182.25;5479654;26;20446;-66
2024/04/25 03:47:24;;;;;;;4.65;0.93;;;;;;;-146.27;79.55;45150.41;5466605;26;20076;-68
2024/04/25 03:49:50;;;;;;;4.60;1.13;;;;;;;-146.27;78.69;45142.44;5456948;26;19995;-67
2024/04/25 03:52:15;;;;;;;10.05;2.03;;;;;;;-146.27;78.20;45166.31;5455221;26;20006;-67
2024/04/25 03:54:41;;;;;;;3.42;0.77;;;;;;;-146.27;77.59;45192.19;5458610;26;20442;-67
2024/04/25 03:57:06;;;;;;;6.90;1.20;;;;;;;-146.27;77.26;45206.13;5479898;26;20038;-68
2024/04/25 03:59:31;;;;;;;9.35;1.15;;;;;;;-146.27;76.86;45228.03;5483729;26;19998;-65
2024/04/25 04:01:58;;;;;;;5.07;0.90;;;;;;;-146.27;77.13;45220.06;5484319;26;19994;-69
2024/04/25 04:04:24;;;;;;;6.15;1.75;;;;;;;-146.27;78.54;45174.28;5449035;26;20006;-67
2024/04/25 04:06:49;;;;;;;14.90;1.35;;;;;;;-146.27;78.43;45136.47;5472054;26;19991;-67
2024/04/25 04:09:14;;;;;;;4.43;1.10;;;;;;;-146.27;78.61;45126.53;5448304;26;19991;-68
2024/04/25 04:11:40;;;;;;;6.78;1.55;;;;;;;-146.27;79.88;45040.94;5450156;26;20440;-67
2024/04/25 04:14:05;;;;;;;4.40;1.23;;;;;;;-146.27;80.07;45034.97;5449534;26;19995;-68
2024/04/25 04:16:31;;;;;;;3.33;1.20;;;;;;;-146.27;79.48;44991.19;5449957;26;20005;-66
2024/04/25 04:18:56;;;;;;;7.57;1.90;;;;;;;-146.27;79.18;45040.94;5449461;26;20007;-68
2024/04/25 04:21:22;;;;;;;7.00;1.67;;;;;;;-146.27;79.50;44995.19;5470907;26;20341;-69
2024/04/25 04:23:47;;;;;;;8.48;1.35;;;;;;;-146.27;79.99;44953.38;5479429;26;19994;-66
2024/04/25 04:26:13;;;;;;;7.05;1.50;;;;;;;-146.27;80.40;44911.59;5460472;26;20007;-68
2024/04/25 04:28:39;;;;;;;4.93;1.17;;;;;;;-146.27;79.85;44927.53;5449521;26;19995;-66
2024/04/25 04:31:04;;;;;;;9.35;1.77;;;;;;;-146.27;81.13;44808.13;5479084;26;20033;-67
2024/04/25 04:33:34;;;;;;;6.38;1.67;;;;;;;-146.27;81.31;44786.25;5453521;26;20013;-67
2024/04/25 04:36:03;;;;;;;8.02;1.30;;;;;;;-146.27;82.48;44619.09;5456257;26;20009;-67
2024/04/25 04:38:31;;;;;;;5.25;1.45;;;;;;;-146.27;82.33;44563.38;5446589;26;20013;-67
2024/04/25 04:40:56;;;;;;;5.70;1.50;;;;;;;-146.27;82.62;44487.75;5456848;26;20444;-69
2024/04/25 04:43:21;;;;;;;10.18;2.03;;;;;;;-146.27;82.98;44453.94;5458310;26;20011;-66
2024/04/25 04:45:47;;;;;;;5.90;1.73;;;;;;;-146.27;82.88;44388.28;5472390;26;20005;-67
2024/04/25 04:48:13;;;;;;;3.03;1.50;;;;;;;-146.27;83.53;44306.69;5467292;26;20005;-66
2024/04/25 04:50:38;;;;;;;6.65;1.88;;;;;;;-146.27;83.69;44252.97;5462937;26;20010;-67
2024/04/25 04:53:04;;;;;;;6.90;1.58;;;;;;;-146.27;84.07;44215.16;5448036;26;19995;-67
2024/04/25 04:55:29;;;;;;;6.40;1.60;;;;;;;-146.27;84.07;44161.44;5455185;26;20010;-68
2024/04/25 04:57:54;;;;;;;8.55;1.80;;;;;;;-146.27;83.59;44207.22;5449817;26;19998;-67
2024/04/25 05:00:20;;;;;;;5.60;1.65;;;;;;;-146.27;83.35;44243.03;5450769;26;20010;-71
2024/04/25 05:02:46;;;;;;;3.63;1.60;;;;;;;-146.27;83.04;44346.50;5462807;26;20071;-70
2024/04/25 05:05:11;;;;;;;5.25;1.65;;;;;;;-146.27;83.25;44350.47;5456013;26;20326;-68
2024/04/25 05:07:37;;;;;;;9.65;1.50;;;;;;;-146.27;83.49;44436.03;5448450;26;20443;-67
2024/04/25 05:10:02;;;;;;;5.13;1.70;;;;;;;-146.27;83.06;44449.97;5447910;26;20009;-67
2024/04/25 05:12:28;;;;;;;6.10;2.08;;;;;;;-146.27;82.90;44525.56;5451859;26;20018;-66
2024/04/25 05:14:53;;;;;;;10.13;1.67;;;;;;;-146.27;81.96;44660.88;5452017;26;19999;-67
2024/04/25 05:17:19;;;;;;;9.90;1.95;;;;;;;-146.27;81.76;44712.59;5447407;26;19991;-69
2024/04/25 05:19:44;;;;;;;10.18;2.08;;;;;;;-146.27;81.81;44748.44;5453997;26;20074;-68
2024/04/25 05:22:09;;;;;;;13.38;1.73;;;;;;;-146.27;81.19;44782.25;5479887;26;20002;-68
2024/04/25 05:24:35;;;;;;;8.25;1.88;;;;;;;-146.27;80.75;44873.78;5457391;26;19999;-68
2024/04/25 05:27:00;;;;;;;4.88;1.95;;;;;;;-146.27;80.26;44871.81;5483676;26;20017;-69
2024/04/25 05:29:26;;;;;;;6.28;1.63;;;;;;;-146.27;79.32;44949.41;5481779;26;20002;-67
2024/04/25 05:31:51;;;;;;;6.05;1.80;;;;;;;-146.27;79.65;45001.16;5463528;26;20026;-68
2024/04/25 05:34:17;;;;;;;4.03;1.77;;;;;;;-146.27;79.25;44999.16;5484571;26;20494;-67
2024/04/25 05:36:42;;;;;;;6.90;2.00;;;;;;;-146.27;79.01;45038.97;5480553;26;20446;-68
2024/04/25 05:39:07;;;;;;;4.18;1.85;;;;;;;-146.27;78.93;45046.94;5469484;26;20014;-68
2024/04/25 05:41:33;;;;;;;5.05;1.80;;;;;;;-146.27;79.14;45090.72;5453420;26;20448;-69
2024/04/25 05:43:58;;;;;;;6.20;1.65;;;;;;;-146.27;78.33;45094.69;5452705;26;19995;-67
2024/04/25 05:46:25;;;;;;;5.07;1.58;;;;;;;-146.27;78.27;45142.44;5465593;26;20455;-67
2024/04/25 05:48:51;;;;;;;5.35;1.60;;;;;;;-146.27;78.53;45118.56;5454763;26;20013;-68
2024/04/25 05:51:16;;;;;;;8.93;1.83;;;;;;;-146.27;78.55;45136.47;5466531;26;20550;-68
2024/04/25 05:53:42;;;;;;;5.70;1.80;;;;;;;-146.27;78.70;45122.53;5451639;26;19995;-68
2024/04/25 05:56:07;;;;;;;8.80;1.85;;;;;;;-146.27;78.82;45090.72;5467664;26;20658;-68
2024/04/25 05:58:32;;;;;;;6.43;1.58;;;;;;;-146.27;78.16;45152.41;5485985;26;19997;-67
2024/04/25 06:00:58;;;;;;;8.80;1.90;;;;;;;-146.27;77.89;45190.22;5457706;26;19999;-68
2024/04/25 06:03:23;;;;;;;5.78;1.40;;;;;;;-146.27;77.45;45168.31;5477490;26;20330;-68
2024/04/25 06:05:49;;;;;;;9.30;2.75;;;;;;;-146.27;76.06;45285.75;5488071;26;19994;-71
2024/04/25 06:08:14;;;;;;;5.13;1.55;;;;;;;-146.27;75.23;45371.31;5488526;26;20006;-71
2024/04/25 06:10:39;;;;;;;9.50;2.05;;;;;;;-146.27;74.84;45438.97;5469216;26;19995;-71
2024/04/25 06:13:05;;;;;;;4.65;1.65;;;;;;;-146.27;74.68;45417.09;5484771;26;19995;-71
2024/04/25 06:15:30;;;;;;;6.30;1.88;;;;;;;-146.27;74.65;45454.91;5460588;26;19995;-70
2024/04/25 06:17:56;;;;;;;5.95;2.40;;;;;;;-146.27;75.05;45470.81;5462412;26;19994;-72
2024/04/25 06:20:21;;;;;;;3.78;1.42;;;;;;;-146.27;73.52;45514.63;5469224;26;20003;-71
2024/04/25 06:22:47;;;;;;;7.50;2.33;;;;;;;-146.27;74.68;45542.47;5467052;26;20013;-71
2024/04/25 06:25:12;;;;;;;5.82;1.90;;;;;;;-146.27;75.10;45488.75;5488632;26;19998;-69
2024/04/25 06:27:38;;;;;;;3.47;1.50;;;;;;;-146.27;74.60;45444.94;5457574;26;20011;-72
2024/04/25 06:30:04;;;;;;;7.88;1.75;;;;;;;-146.27;74.91;45484.75;5450505;26;20006;-71
2024/04/25 06:32:29;;;;;;;7.15;1.58;;;;;;;-146.27;73.96;45554.41;5449980;26;20002;-71
2024/04/25 06:34:54;;;;;;;4.45;1.35;;;;;;;-146.27;75.32;45514.63;5451062;26;20019;-71
2024/04/25 06:37:20;;;;;;;5.97;1.48;;;;;;;-146.27;76.67;45470.81;5485077;26;20079;-71
2024/04/25 06:39:49;;;;;;;5.85;1.23;;;;;;;-146.27;78.04;45405.16;5487223;26;20006;-71
2024/04/25 06:42:15;;;;;;;5.43;1.50;;;;;;;-146.27;78.03;45399.19;5487343;26;19998;-70
2024/04/25 06:44:40;;;;;;;3.75;1.35;;;;;;;-146.27;79.26;45357.38;5487881;26;20013;-71
2024/04/25 06:47:06;;;;;;;4.28;1.60;;;;;;;-146.27;80.83;45269.81;5487268;26;20070;-73
2024/04/25 06:49:32;;;;;;;5.85;1.75;;;;;;;-146.27;80.54;45214.09;5486786;26;19994;-71
2024/04/25 06:52:01;;;;;;;3.85;1.38;;;;;;;-146.27;81.18;45178.28;5478382;26;19995;-72
2024/04/25 06:54:27;;;;;;;7.03;1.70;;;;;;;-146.27;81.08;45158.38;5487070;26;20002;-71
2024/04/25 06:56:54;;;;;;;4.40;1.20;;;;;;;-146.27;80.09;45178.28;5487021;26;20006;-71
2024/04/25 06:59:19;;;;;;;6.35;1.30;;;;;;;-146.27;80.95;45162.34;5487207;26;20299;-70
2024/04/25 07:01:46;;;;;;;8.10;1.42;;;;;;;-146.27;80.21;45142.44;5488153;26;20428;-70
2024/04/25 07:04:11;;;;;;;3.80;1.20;;;;;;;-146.27;80.51;45160.34;5488278;26;20010;-72
2024/04/25 07:06:37;;;;;;;11.45;1.73;;;;;;;-146.27;80.45;45110.59;5486797;26;20030;-72
2024/04/25 07:09:06;;;;;;;3.03;1.08;;;;;;;-146.27;80.21;45138.47;5487073;26;20342;-72
2024/04/25 07:11:32;;;;;;;5.65;1.35;;;;;;;-146.27;80.48;45094.69;5487278;26;20022;-71
2024/04/25 07:13:57;;;;;;;2.95;1.23;;;;;;;-146.27;80.71;45106.63;5487431;26;20001;-67
2024/04/25 07:16:22;;;;;;;5.20;1.35;;;;;;;-146.27;80.59;45064.84;5487607;26;19994;-68
2024/04/25 07:18:48;;;;;;;5.63;1.52;;;;;;;-146.27;80.56;45072.78;5487529;26;19990;-68
2024/04/25 07:21:13;;;;;;;4.78;1.70;;;;;;;-146.27;79.68;45090.72;5458847;26;19995;-69
2024/04/25 07:23:38;;;;;;;3.95;1.48;;;;;;;-146.27;79.11;45078.75;5450710;26;19995;-72
2024/04/25 07:26:03;;;;;;;6.65;1.58;;;;;;;-146.27;78.85;45150.41;5450500;26;19999;-72
2024/04/25 07:28:34;;;;;;;7.20;1.73;;;;;;;-146.27;78.72;45142.44;5450288;26;20013;-72
2024/04/25 07:30:59;;;;;;;8.48;1.90;;;;;;;-146.27;79.51;45144.44;5451033;26;20003;-72
2024/04/25 07:33:25;;;;;;;6.90;1.60;;;;;;;-146.27;78.28;45142.44;5450237;26;19995;-73
2024/04/25 07:35:50;;;;;;;5.97;1.50;;;;;;;-146.27;77.64;45152.41;5475549;26;19994;-71
2024/04/25 07:38:16;;;;;;;5.65;1.35;;;;;;;-146.27;76.61;45243.94;5487191;26;19994;-71
2024/04/25 07:40:41;;;;;;;6.13;1.60;;;;;;;-146.27;75.95;45249.91;5486749;26;19994;-71
2024/04/25 07:43:06;;;;;;;9.10;1.80;;;;;;;-146.27;75.47;45337.47;5486955;26;20066;-70
2024/04/25 07:45:32;;;;;;;7.90;2.13;;;;;;;-146.27;75.97;45329.53;5487203;26;20006;-71
2024/04/25 07:47:57;;;;;;;5.20;1.92;;;;;;;-146.27;75.83;45293.69;5486633;26;20066;-71
2024/04/25 07:50:22;;;;;;;6.50;1.52;;;;;;;-146.27;75.03;45351.41;5484655;26;20066;-71
2024/04/25 07:52:48;;;;;;;4.88;1.67;;;;;;;-146.27;74.91;45383.25;5486200;26;20005;-72
2024/04/25 07:55:13;;;;;;;5.43;1.60;;;;;;;-146.27;74.64;45381.25;5481880;26;20001;-71
2024/04/25 07:57:39;;;;;;;6.43;1.95;;;;;;;-146.27;74.04;45387.25;5486748;26;20567;-71
2024/04/25 08:00:07;;;;;;;8.15;1.55;;;;;;;-146.27;72.15;45452.91;5486641;26;19990;-72
2024/04/25 08:02:37;;;;;;;6.00;1.85;;;;;;;-146.27;73.33;45437.00;5485187;26;20030;-71
2024/04/25 08:05:05;;;;;;;9.43;2.20;;;;;;;-146.27;74.35;45429.03;5453229;26;19990;-71
2024/04/25 08:07:31;;;;;;;5.93;1.83;;;;;;;-146.27;73.90;45556.41;5453957;26;19999;-72
2024/04/25 08:09:56;;;;;;;7.03;1.25;;;;;;;-146.27;73.19;45685.78;5467838;26;20009;-71
2024/04/25 08:12:23;;;;;;;5.72;1.10;;;;;;;-146.27;74.27;45687.78;5486222;26;19998;-73
2024/04/25 08:14:49;;;;;;;5.75;1.38;;;;;;;-146.27;78.75;45556.41;5467764;26;20002;-72
2024/04/25 08:17:15;;;;;;;5.95;1.13;;;;;;;-146.27;81.05;45317.56;5449861;26;20462;-73
2024/04/25 08:19:41;;;;;;;2.17;1.10;;;;;;;-146.27;80.21;45269.81;5449886;26;20068;-72
2024/04/25 08:22:06;;;;;;;4.22;1.40;;;;;;;-146.27;80.04;45275.78;5474072;26;19998;-72
2024/04/25 08:24:31;;;;;;;4.10;1.20;;;;;;;-146.27;79.83;45222.06;5486046;26;20526;-72
2024/04/25 08:26:57;;;;;;;3.85;1.15;;;;;;;-146.27;81.24;45126.53;5486334;26;20006;-73
2024/04/25 08:29:23;;;;;;;3.85;1.30;;;;;;;-146.27;80.55;45088.72;5480311;26;20454;-70
2024/04/25 08:31:49;;;;;;;2.15;1.13;;;;;;;-146.27;80.40;45052.91;5467430;26;20013;-70
2024/04/25 08:34:14;;;;;;;2.78;1.20;;;;;;;-146.27;80.13;45104.63;5486172;26;19994;-72
2024/04/25 08:36:40;;;;;;;6.07;1.67;;;;;;;-146.27;80.03;45074.78;5456286;26;19991;-73
2024/04/25 08:39:05;;;;;;;5.78;1.40;;;;;;;-146.27;79.58;45096.69;5449682;26;20063;-70
2024/04/25 08:41:31;;;;;;;3.72;1.17;;;;;;;-146.27;79.62;45126.53;5450953;26;19995;-71
2024/04/25 08:43:57;;;;;;;3.05;1.13;;;;;;;-146.27;77.31;45257.88;5454578;26;20082;-72
2024/04/25 08:46:26;;;;;;;8.88;1.48;;;;;;;-146.27;77.06;45230.00;5434132;26;20075;-72
2024/04/25 08:48:54;;;;;;;5.65;1.20;;;;;;;-146.27;78.22;45178.28;5465887;26;20002;-72
2024/04/25 08:51:25;;;;;;;5.00;1.25;;;;;;;-146.27;77.93;45124.53;5451970;26;20075;-71
2024/04/25 08:53:54;;;;;;;4.13;1.52;;;;;;;-146.27;77.45;45160.34;5464935;26;20471;-70
2024/04/25 08:56:22;;;;;;;5.72;1.10;;;;;;;-146.27;76.57;45224.03;5486000;26;20083;-69
2024/04/25 08:58:48;;;;;;;3.20;1.10;;;;;;;-146.27;74.41;45293.69;5460625;26;20002;-71
2024/04/25 09:01:15;;;;;;;7.10;1.40;;;;;;;-146.27;73.34;45373.31;5476833;26;20037;-72
2024/04/25 09:03:44;;;;;;;5.18;2.17;;;;;;;-146.27;74.12;45355.41;5480040;26;20022;-73
2024/04/25 09:06:11;;;;;;;4.50;1.20;;;;;;;-146.27;74.33;45357.38;5451076;26;19991;-71
2024/04/25 09:08:36;;;;;;;4.45;1.40;;;;;;;-146.27;73.78;45381.25;5459520;26;19998;-72
2024/04/25 09:11:02;;;;;;;5.07;1.65;;;;;;;-146.27;73.07;45409.13;5456575;26;20083;-73
2024/04/25 09:13:27;;;;;;;3.03;1.05;;;;;;;-146.27;71.29;45492.72;5480473;26;20010;-73
2024/04/25 09:15:54;;;;;;;6.55;1.20;;;;;;;-146.27;71.45;45566.34;5459592;26;20005;-72
2024/04/25 09:18:20;;;;;;;2.97;1.13;;;;;;;-146.27;70.66;45604.19;5485403;26;20006;-71
2024/04/25 09:20:45;;;;;;;5.20;1.42;;;;;;;-146.27;71.87;45558.41;5485075;26;19995;-70
2024/04/25 09:23:10;;;;;;;5.75;1.70;;;;;;;-146.27;72.37;45550.44;5485685;26;20218;-71
2024/04/25 09:25:36;;;;;;;3.53;1.40;;;;;;;-146.27;73.26;45518.59;5485844;26;20575;-72
2024/04/25 09:28:02;;;;;;;8.52;3.15;;;;;;;-146.27;73.15;45516.59;5485098;26;20022;-70
2024/04/25 09:30:30;;;;;;;3.97;1.40;;;;;;;-146.27;72.98;45512.63;5483770;26;20005;-72
2024/04/25 09:32:55;;;;;;;8.15;1.70;;;;;;;-146.27;73.02;45596.22;5485428;26;20006;-73
2024/04/25 09:35:20;;;;;;;5.22;1.90;;;;;;;-146.27;74.89;45576.31;5484747;26;20214;-72
2024/04/25 09:37:46;;;;;;;3.22;1.70;;;;;;;-146.27;75.00;45560.38;5479868;26;19999;-69
2024/04/25 09:40:11;;;;;;;11.77;2.05;;;;;;;-146.27;74.85;45532.53;5453863;26;20062;-72
2024/04/25 09:42:38;;;;;;;6.35;2.08;;;;;;;-146.27;74.27;45538.50;5480686;26;20079;-72
2024/04/25 09:45:06;;;;;;;6.43;1.85;;;;;;;-146.27;74.27;45512.63;5482264;26;20030;-70
2024/04/25 09:47:53;;;;;;;7.32;2.72;;;;;;;-146.27;74.29;45512.63;5482609;26;20058;-68
2024/04/25 09:50:24;;;;;;;4.00;2.17;;;;;;;-146.27;74.16;45568.34;5482630;26;20055;-67
2024/04/25 09:52:57;;;;;;;6.03;2.30;;;;;;;-146.27;74.32;45544.47;5482730;26;20434;-67
2024/04/25 09:55:32;;;;;;;8.65;2.00;;;;;;;-146.27;73.38;45548.44;5483252;26;19998;-67
2024/04/25 09:58:02;;;;;;;8.55;2.20;;;;;;;-146.27;73.73;45536.50;5482882;26;20032;-68
2024/04/25 10:00:28;;;;;;;4.65;1.75;;;;;;;-146.27;71.12;45618.09;5484966;26;20086;-69
2024/04/25 10:02:56;;;;;;;6.20;2.17;;;;;;;-146.27;71.02;45643.97;5485063;26;20005;-68
2024/04/25 10:05:21;;;;;;;8.38;1.63;;;;;;;-146.27;70.01;45640.00;5484521;26;20737;-67
2024/04/25 10:07:48;;;;;;;4.45;1.27;;;;;;;-146.27;67.99;45693.75;5484767;26;20005;-67
2024/04/25 10:10:15;;;;;;;4.10;1.77;;;;;;;-146.27;66.82;45771.38;5484923;26;19990;-66
2024/04/25 10:12:48;;;;;;;7.28;1.52;;;;;;;-146.27;65.38;45868.91;5465511;26;20026;-67
2024/04/25 10:15:25;;;;;;;8.98;1.83;;;;;;;-146.27;64.46;45902.75;5484246;26;20355;-68
2024/04/25 10:17:51;;;;;;;5.05;1.70;;;;;;;-146.27;64.48;45868.91;5485587;26;19998;-68
2024/04/25 10:20:20;;;;;;;8.57;1.90;;;;;;;-146.27;63.57;45972.41;5485251;26;20025;-68
2024/04/25 10:22:58;;;;;;;7.97;2.00;;;;;;;-146.27;64.68;45906.72;5458376;26;19995;-69
2024/04/25 10:25:26;;;;;;;3.40;1.67;;;;;;;-146.27;62.86;46000.28;5451748;26;20454;-68
2024/04/25 10:27:59;;;;;;;6.47;1.70;;;;;;;-146.27;64.25;45968.41;5466362;26;19990;-67
2024/04/25 10:30:25;;;;;;;10.18;2.97;;;;;;;-146.27;63.38;45946.53;5487541;26;20021;-72
2024/04/25 10:32:52;;;;;;;7.03;1.95;;;;;;;-146.27;60.60;46028.13;5466852;26;19998;-67
2024/04/25 10:35:17;;;;;;;6.13;1.48;;;;;;;-146.27;51.40;46464.09;5467847;26;19994;-67
2024/04/25 10:37:44;;;;;;;4.35;1.10;;;;;;;-146.27;48.99;46615.41;5474233;26;19998;-68
2024/04/25 10:40:13;;;;;;;4.07;1.20;;;;;;;-146.27;46.94;46782.63;5459575;26;20075;-67
2024/04/25 10:42:39;;;;;;;3.50;1.08;;;;;;;-146.27;48.02;46786.59;5459613;26;20435;-68
2024/04/25 10:45:05;;;;;;;4.97;1.05;;;;;;;-146.27;49.53;46762.72;5451424;26;20013;-70
2024/04/25 10:47:31;;;;;;;3.65;1.45;;;;;;;-146.27;48.13;46808.50;5450695;26;19990;-68
2024/04/25 10:49:57;;;;;;;4.70;1.50;;;;;;;-146.27;48.36;46802.53;5454843;26;20057;-67
2024/04/25 10:52:22;;;;;;;5.15;1.38;;;;;;;-146.27;48.82;46790.59;5483608;26;20002;-67
2024/04/25 10:54:48;;;;;;;7.53;1.42;;;;;;;-146.27;49.70;46772.66;5450984;26;20347;-72
2024/04/25 10:57:14;;;;;;;9.00;1.58;;;;;;;-146.27;48.66;46834.38;5453862;26;20392;-71
2024/04/25 10:59:39;;;;;;;3.20;1.42;;;;;;;-146.27;48.33;46874.22;5472606;26;20013;-73
2024/04/25 11:02:05;;;;;;;7.85;1.60;;;;;;;-146.27;48.22;46858.28;5483098;26;20009;-73
2024/04/25 11:04:35;;;;;;;4.85;1.20;;;;;;;-146.27;48.37;46886.16;5487415;26;20022;-71
2024/04/25 11:07:03;;;;;;;5.60;1.30;;;;;;;-146.27;48.44;46856.28;5453776;26;20006;-71
2024/04/25 11:09:28;;;;;;;11.10;1.83;;;;;;;-146.27;48.47;46904.06;5450880;26;19995;-72
2024/04/25 11:11:54;;;;;;;6.00;1.45;;;;;;;-146.27;48.94;46820.44;5479018;26;20051;-70
2024/04/25 11:14:22;;;;;;;4.95;1.33;;;;;;;-146.27;49.03;46876.19;5474585;26;20129;-73
2024/04/25 11:16:48;;;;;;;4.03;1.50;;;;;;;-146.27;50.55;46858.28;5460830;26;20010;-70